Friday, November 17, 2017, 4:11 PM EST
Back to Local

K40B, Clayton Lake

Location: Ashland, ME, United States Lat: 46.617
Local Time: 4:11 PM EST (21:11 GMT) Lon: -69.533
Time Zone: US/Eastern Elev: 1030 ft

Show me the last for .
Show Decoded

2017-11-17 15:16 METAR K40B 172016Z AUTO VRB04G12KT M03/M06 A2972 RMK AO1 SLP085 T10271064 53017
                 =
2017-11-17 14:16 METAR K40B 171916Z AUTO 24006G18KT 080V330 M02/M06 A2969 RMK AO1 SLP074
                 T10211059 52009 =
2017-11-17 13:16 METAR K40B 171816Z AUTO 27008G20KT 190V350 M02/M05 A2969 RMK AO1 SLP071
                 T10181049 10007 21018 52005 =
2017-11-17 12:16 METAR K40B 171716Z AUTO VRB05G13KT M01/M04 A2967 RMK AO1 SLP067 T10081036 51008
                 =
2017-11-17 11:16 METAR K40B 171616Z AUTO VRB04G10KT M01/M02 A2967 RMK AO1 SLP064 T10061022 51010
                 =
2017-11-17 10:16 METAR K40B 171516Z AUTO VRB02G14KT 00/M01 A2967 RMK AO1 SLP065 T10021014 52016 =
2017-11-17 09:16 METAR K40B 171416Z AUTO VRB04G14KT 00/M01 A2965 RMK AO1 SLP059 T00021007 52018 =
2017-11-17 08:16 METAR K40B 171316Z AUTO VRB06G12KT 01/00 A2964 RMK AO1 SLP055 T00050000 51024 =
2017-11-17 07:16 METAR K40B 171216Z AUTO VRB06G14KT 01/00 A2962 RMK AO1 SLP049 T00070003 10010
                 20002 53022 60000 70021 =
2017-11-17 06:16 METAR K40B 171116Z AUTO VRB03G14KT 01/01 A2960 RMK AO1 SLP041 T00080009 53015 =
2017-11-17 05:16 METAR K40B 171016Z AUTO VRB04G14KT 01/01 A2956 RMK AO1 SLP029 T00090013 53002
                 P0000 =
2017-11-17 04:16 METAR K40B 170916Z AUTO VRB03G11KT 01/01 A2955 RMK AO1 SLP025 T00090015 55006 =
2017-11-17 03:16 METAR K40B 170816Z AUTO 00000KT 01/01 A2955 RMK AO1 SLP024 T00070012 55015 =
2017-11-17 02:16 METAR K40B 170716Z AUTO 00000KT 00/01 A2955 RMK AO1 SLP026 T00030009 57018 =
2017-11-17 01:16 METAR K40B 170616Z AUTO 00000KT 00/01 A2957 RMK AO1 SLP031 T00030009 10011 20001
                 58016 60001 =
2017-11-17 00:16 METAR K40B 170516Z AUTO 00000KT 00/01 A2959 RMK AO1 SLP040 T00020007 400121066
                 56017 =
2017-11-16 23:16 METAR K40B 170416Z AUTO 00000KT 00/01 A2961 RMK AO1 SLP045 T00020007 56017 =
2017-11-16 22:16 METAR K40B 170316Z AUTO 00000KT 00/01 A2962 RMK AO1 SLP048 T00020007 56030 60001
                 =
2017-11-16 21:16 METAR K40B 170216Z AUTO 00000KT 00/01 A2965 RMK AO1 SLP058 T00030008 58022 P0000
                 =
2017-11-16 20:16 METAR K40B 170116Z AUTO 00000KT 01/01 A2966 RMK AO1 SLP064 T00080011 58017 P0000
                 =
2017-11-16 19:16 METAR K40B 170016Z AUTO 00000KT 01/01 A2971 RMK AO1 SLP079 T00110012 10012 20004
                 55005 P0001 60011 =
2017-11-16 18:16 METAR K40B 162316Z AUTO VRB02KT 01/01 A2971 RMK AO1 SLP081 T00100012 57005 P0001
                 =
2017-11-16 17:16 METAR K40B 162216Z AUTO VRB04KT 01/01 A2972 RMK AO1 SLP083 T00110013 56011 =
2017-11-16 16:16 METAR K40B 162116Z AUTO VRB04G11KT 01/01 A2973 RMK AO1 SLP086 T00100012 56014
                 60008 =

Support USWX by starting your Amazon purchase here.